Time;durP1;ratioP1;P1;durP2;ratioP2;P2;SDS_P1;SDS_P2;PMS_P1;PMS_P2;Temp;Humidity;BMP_temperature;BMP_pressure;BME280_temperature;BME280_humidity;BME280_pressure;Samples;Min_cycle;Max_cycle;Signal;HPM_P1;HPM_P2
2023/04/13 00:01:13;;;;;;;5.33;3.03;;;6.10;99.90;;;;;;5041976;28;20232;-57
2023/04/13 00:03:40;;;;;;;4.53;3.17;;;6.00;99.90;;;;;;5040507;28;20195;-57
2023/04/13 00:06:09;;;;;;;4.37;3.10;;;6.00;99.90;;;;;;5036765;28;20275;-56
2023/04/13 00:08:36;;;;;;;5.87;3.30;;;6.00;99.90;;;;;;5033778;28;20223;-55
2023/04/13 00:11:04;;;;;;;6.70;3.07;;;6.00;99.90;;;;;;5043424;28;20195;-56
2023/04/13 00:13:36;;;;;;;4.70;3.47;;;6.00;99.90;;;;;;5019216;28;20214;-54
2023/04/13 00:16:06;;;;;;;3.83;3.27;;;5.90;99.90;;;;;;5045512;28;20195;-56
2023/04/13 00:18:33;;;;;;;4.53;3.27;;;5.90;99.90;;;;;;5041812;28;20302;-56
2023/04/13 00:21:00;;;;;;;3.60;2.97;;;5.90;99.90;;;;;;5048494;28;20195;-53
2023/04/13 00:23:26;;;;;;;5.83;3.33;;;5.80;99.90;;;;;;5034042;28;21031;-54
2023/04/13 00:25:53;;;;;;;7.17;2.97;;;5.80;99.90;;;;;;5045600;28;20253;-54
2023/04/13 00:28:20;;;;;;;3.70;3.07;;;5.80;99.90;;;;;;5006559;28;20579;-58
2023/04/13 00:30:48;;;;;;;4.83;3.43;;;5.80;99.90;;;;;;5039188;28;20215;-52
2023/04/13 00:33:16;;;;;;;4.67;2.93;;;5.70;99.90;;;;;;5033424;28;20199;-56
2023/04/13 00:36:05;;;;;;;5.63;3.00;;;5.60;99.90;;;;;;5035184;28;20213;-56
2023/04/13 00:38:32;;;;;;;5.90;3.37;;;5.60;99.90;;;;;;5031974;28;20290;-57
2023/04/13 00:41:01;;;;;;;4.07;3.27;;;5.60;99.90;;;;;;5053083;28;20206;-56
2023/04/13 00:43:28;;;;;;;6.13;3.43;;;5.50;99.90;;;;;;5042395;28;20218;-57
2023/04/13 00:46:17;;;;;;;6.50;3.60;;;5.50;99.90;;;;;;5022171;28;20253;-56
2023/04/13 00:48:47;;;;;;;4.90;4.40;;;5.40;99.90;;;;;;5023693;28;20219;-55
2023/04/13 00:51:15;;;;;;;8.00;4.20;;;5.40;99.90;;;;;;5035920;28;20206;-53
2023/04/13 00:53:45;;;;;;;5.17;4.53;;;5.30;99.90;;;;;;5041332;28;20199;-54
2023/04/13 00:56:13;;;;;;;5.67;4.27;;;5.30;99.90;;;;;;5044089;28;20257;-53
2023/04/13 00:58:41;;;;;;;5.67;4.40;;;5.30;99.90;;;;;;5043173;28;20227;-55
2023/04/13 01:01:08;;;;;;;5.67;4.53;;;5.20;99.90;;;;;;5006193;28;20212;-56
2023/04/13 01:03:35;;;;;;;4.83;4.30;;;5.20;99.90;;;;;;5032164;28;20192;-54
2023/04/13 01:06:13;;;;;;;5.27;4.77;;;5.10;99.90;;;;;;5043532;28;20234;-56
2023/04/13 01:08:47;;;;;;;6.50;4.33;;;5.20;99.90;;;;;;5037602;28;20218;-53
2023/04/13 01:11:21;;;;;;;5.40;4.00;;;5.10;99.90;;;;;;5031356;28;20286;-56
2023/04/13 01:13:55;;;;;;;7.60;5.03;;;5.00;99.90;;;;;;5022643;28;20479;-54
2023/04/13 01:16:29;;;;;;;6.07;4.90;;;5.00;99.90;;;;;;4993771;28;20281;-55
2023/04/13 01:18:58;;;;;;;6.33;4.93;;;4.90;99.90;;;;;;5042554;28;20248;-54
2023/04/13 01:21:29;;;;;;;4.73;4.30;;;4.90;99.90;;;;;;5041097;28;20604;-56
2023/04/13 01:24:09;;;;;;;6.57;4.83;;;4.90;99.90;;;;;;5021404;28;20617;-56
2023/04/13 01:26:44;;;;;;;7.67;4.63;;;4.90;99.90;;;;;;5015347;28;20213;-53
2023/04/13 01:29:13;;;;;;;7.90;4.47;;;4.80;99.90;;;;;;5034126;28;20244;-55
2023/04/13 01:31:40;;;;;;;7.23;4.90;;;4.80;99.90;;;;;;5014544;28;20956;-56
2023/04/13 01:34:30;;;;;;;7.93;5.67;;;4.70;99.90;;;;;;5026088;28;20210;-56
2023/04/13 01:37:03;;;;;;;7.80;4.80;;;4.70;99.90;;;;;;5025456;28;20205;-51
2023/04/13 01:39:32;;;;;;;10.47;5.33;;;4.70;99.90;;;;;;5022772;28;20196;-56
2023/04/13 01:42:11;;;;;;;6.73;5.40;;;4.60;99.90;;;;;;5030024;28;20575;-53
2023/04/13 01:44:41;;;;;;;6.83;4.53;;;4.60;99.90;;;;;;5022717;28;20234;-51
2023/04/13 01:47:14;;;;;;;10.30;6.10;;;4.60;99.90;;;;;;4997705;28;20766;-56
2023/04/13 01:49:54;;;;;;;7.30;5.27;;;4.60;99.90;;;;;;5038945;28;20248;-54
2023/04/13 01:52:33;;;;;;;9.07;5.80;;;4.60;99.90;;;;;;5017270;28;20195;-50
2023/04/13 01:55:05;;;;;;;8.47;5.63;;;4.60;99.90;;;;;;5019768;28;20908;-52
2023/04/13 01:57:35;;;;;;;5.50;5.00;;;4.60;99.90;;;;;;5037434;28;20216;-57
2023/04/13 02:00:11;;;;;;;9.73;6.40;;;4.50;99.90;;;;;;5039911;28;20300;-55
2023/04/13 02:02:39;;;;;;;9.07;5.03;;;4.50;99.90;;;;;;5010993;28;20612;-56
2023/04/13 02:05:09;;;;;;;8.33;5.47;;;4.40;99.90;;;;;;5023168;28;20217;-54
2023/04/13 02:07:39;;;;;;;8.07;6.00;;;4.40;99.90;;;;;;5026158;28;20226;-57
2023/04/13 02:10:06;;;;;;;6.67;5.43;;;4.40;99.90;;;;;;5021379;28;20187;-53
2023/04/13 02:12:33;;;;;;;7.80;5.57;;;4.30;99.90;;;;;;5017546;28;20230;-56
2023/04/13 02:15:01;;;;;;;7.07;5.90;;;4.30;99.90;;;;;;5012000;28;20202;-57
2023/04/13 02:17:29;;;;;;;10.17;6.30;;;4.20;99.90;;;;;;5001245;28;20317;-55
2023/04/13 02:20:15;;;;;;;10.37;6.13;;;4.20;99.90;;;;;;5042075;28;20761;-53
2023/04/13 02:22:42;;;;;;;9.87;5.93;;;4.20;99.90;;;;;;5025361;28;20203;-55
2023/04/13 02:25:11;;;;;;;11.33;6.07;;;4.20;99.90;;;;;;5031757;28;20235;-55
2023/04/13 02:27:38;;;;;;;7.97;6.40;;;4.20;99.90;;;;;;5026209;28;20231;-58
2023/04/13 02:30:06;;;;;;;10.40;6.70;;;4.10;99.90;;;;;;5024224;28;20211;-53
2023/04/13 02:32:38;;;;;;;9.17;6.33;;;4.10;99.90;;;;;;5025706;28;20237;-58
2023/04/13 02:35:07;;;;;;;9.80;6.87;;;4.20;99.90;;;;;;5016402;28;20327;-55
2023/04/13 02:37:38;;;;;;;9.17;6.50;;;4.20;99.90;;;;;;5025050;28;20264;-56
2023/04/13 02:40:09;;;;;;;12.17;6.43;;;4.20;99.90;;;;;;5013297;28;20216;-56
2023/04/13 02:42:37;;;;;;;13.00;7.50;;;4.20;99.90;;;;;;5036725;28;20199;-57
2023/04/13 02:45:07;;;;;;;11.90;7.13;;;4.20;99.90;;;;;;5022479;28;20269;-56
2023/04/13 02:47:36;;;;;;;12.23;6.67;;;4.10;99.90;;;;;;5025181;28;20238;-57
2023/04/13 02:50:03;;;;;;;11.37;6.80;;;4.20;99.90;;;;;;4992764;28;20739;-53
2023/04/13 02:52:53;;;;;;;11.00;6.50;;;4.20;99.90;;;;;;5032113;28;20207;-56
2023/04/13 02:55:20;;;;;;;9.70;6.97;;;4.10;99.90;;;;;;5038513;28;20191;-55
2023/04/13 02:58:01;;;;;;;11.73;7.37;;;4.10;99.90;;;;;;5023553;28;20226;-54
2023/04/13 03:00:29;;;;;;;14.57;7.07;;;4.10;99.90;;;;;;5023239;28;20275;-55
2023/04/13 03:03:02;;;;;;;12.20;6.60;;;4.10;99.90;;;;;;5042339;28;20237;-52
2023/04/13 03:05:34;;;;;;;11.90;6.60;;;4.10;99.90;;;;;;4996804;28;20214;-56
2023/04/13 03:08:04;;;;;;;10.17;7.10;;;4.10;99.90;;;;;;5020049;28;20224;-53
2023/04/13 03:10:32;;;;;;;9.57;6.97;;;4.10;99.90;;;;;;5021062;28;20557;-53
2023/04/13 03:13:00;;;;;;;11.50;7.40;;;4.10;99.90;;;;;;5023327;28;20203;-56
2023/04/13 03:15:27;;;;;;;13.10;7.33;;;4.00;99.90;;;;;;5015748;28;20296;-58
2023/04/13 03:17:54;;;;;;;11.70;7.13;;;4.00;99.90;;;;;;5030452;28;20222;-52
2023/04/13 03:20:27;;;;;;;12.27;7.37;;;4.00;99.90;;;;;;5005730;28;20191;-59
2023/04/13 03:23:16;;;;;;;9.73;7.23;;;4.00;99.90;;;;;;5036434;28;20207;-56
2023/04/13 03:25:44;;;;;;;9.47;6.43;;;4.00;99.90;;;;;;5043598;28;20250;-51
2023/04/13 03:28:11;;;;;;;10.87;7.27;;;3.90;99.90;;;;;;5025448;28;20230;-51
2023/04/13 03:30:42;;;;;;;13.23;7.40;;;4.00;99.90;;;;;;5027848;28;20211;-52
2023/04/13 03:33:09;;;;;;;10.13;6.60;;;4.00;99.90;;;;;;5026687;28;20694;-57
2023/04/13 03:35:39;;;;;;;11.00;6.50;;;3.90;99.90;;;;;;4995456;28;25281;-53
2023/04/13 03:38:13;;;;;;;10.60;7.43;;;3.90;99.90;;;;;;5020920;28;20251;-56
2023/04/13 03:40:44;;;;;;;15.33;8.07;;;3.90;99.90;;;;;;5034450;28;20253;-53
2023/04/13 03:43:11;;;;;;;10.00;7.47;;;3.90;99.90;;;;;;5026082;28;20639;-57
2023/04/13 03:45:43;;;;;;;12.97;7.00;;;3.90;99.90;;;;;;5028285;28;20223;-56
2023/04/13 03:48:13;;;;;;;10.10;7.47;;;3.80;99.90;;;;;;5015036;28;20770;-58
2023/04/13 03:50:41;;;;;;;16.27;8.17;;;3.80;99.90;;;;;;5025548;28;20215;-55
2023/04/13 03:53:11;;;;;;;11.57;7.40;;;3.90;99.90;;;;;;5005868;28;20298;-57
2023/04/13 03:55:37;;;;;;;12.53;6.83;;;3.90;99.90;;;;;;5033695;28;20191;-54
2023/04/13 03:58:07;;;;;;;13.00;7.63;;;3.90;99.90;;;;;;5020824;28;20769;-56
2023/04/13 04:00:35;;;;;;;17.00;7.27;;;3.90;99.90;;;;;;5014984;28;20983;-55
2023/04/13 04:03:16;;;;;;;10.77;7.27;;;3.90;99.90;;;;;;5022887;28;20725;-57
2023/04/13 04:05:54;;;;;;;10.23;7.03;;;3.80;99.90;;;;;;5021208;28;20228;-55
2023/04/13 04:08:22;;;;;;;16.27;8.53;;;3.80;99.90;;;;;;5008674;28;20242;-55
2023/04/13 04:10:51;;;;;;;12.77;7.13;;;3.80;99.90;;;;;;5020364;28;20202;-57
2023/04/13 04:13:21;;;;;;;11.80;7.17;;;3.80;99.90;;;;;;5028250;28;20196;-53
2023/04/13 04:15:51;;;;;;;12.93;7.83;;;3.80;99.90;;;;;;5012127;28;20237;-58
2023/04/13 04:18:18;;;;;;;13.37;8.20;;;3.80;99.90;;;;;;5032931;28;20284;-57
2023/04/13 04:20:45;;;;;;;15.00;8.27;;;3.80;99.90;;;;;;5036767;28;20201;-56
2023/04/13 04:23:14;;;;;;;16.80;8.50;;;3.80;99.90;;;;;;5020533;28;20199;-56
2023/04/13 04:25:48;;;;;;;12.43;8.70;;;3.90;99.90;;;;;;5028140;28;20654;-55
2023/04/13 04:28:16;;;;;;;12.13;7.33;;;3.90;99.90;;;;;;5027432;28;20215;-58
2023/04/13 04:30:52;;;;;;;14.03;8.63;;;3.90;99.90;;;;;;5029102;28;20206;-56
2023/04/13 04:33:21;;;;;;;16.43;9.10;;;3.90;99.90;;;;;;5029937;28;20210;-57
2023/04/13 04:35:50;;;;;;;12.70;8.47;;;3.90;99.90;;;;;;5019753;28;20593;-57
2023/04/13 04:38:23;;;;;;;12.40;7.63;;;3.90;99.90;;;;;;5010785;28;20233;-53
2023/04/13 04:40:56;;;;;;;14.90;8.07;;;3.90;99.90;;;;;;5020935;28;20211;-57
2023/04/13 04:43:25;;;;;;;13.27;8.07;;;4.00;99.90;;;;;;5024633;28;20667;-54
2023/04/13 04:45:56;;;;;;;15.50;7.77;;;4.00;99.90;;;;;;5022338;28;20214;-58
2023/04/13 04:48:25;;;;;;;15.63;8.77;;;4.00;99.90;;;;;;5022466;28;20677;-54
2023/04/13 04:50:56;;;;;;;15.07;8.07;;;4.00;99.90;;;;;;5022511;28;20196;-56
2023/04/13 04:53:27;;;;;;;15.07;8.40;;;4.00;99.90;;;;;;4975957;28;20222;-55
2023/04/13 04:55:55;;;;;;;17.27;9.07;;;4.00;99.90;;;;;;5029225;28;20249;-57
2023/04/13 04:58:35;;;;;;;14.27;8.20;;;4.10;99.90;;;;;;5025321;28;20288;-57
2023/04/13 05:01:03;;;;;;;17.43;9.30;;;4.10;99.90;;;;;;5039281;28;20191;-55
2023/04/13 05:03:30;;;;;;;19.13;9.63;;;4.10;99.90;;;;;;5028610;28;20215;-53
2023/04/13 05:06:09;;;;;;;15.83;8.40;;;4.20;99.90;;;;;;5020688;28;21033;-52
2023/04/13 05:08:37;;;;;;;14.63;8.67;;;4.20;99.90;;;;;;5008632;28;20280;-52
2023/04/13 05:11:06;;;;;;;17.57;8.73;;;4.20;99.90;;;;;;5040136;28;20188;-53
2023/04/13 05:13:55;;;;;;;15.60;8.93;;;4.30;99.90;;;;;;5036472;28;20298;-57
2023/04/13 05:16:24;;;;;;;17.60;9.10;;;4.30;99.90;;;;;;5025168;28;20943;-55
2023/04/13 05:18:53;;;;;;;19.57;9.00;;;4.40;99.90;;;;;;5024171;28;20267;-58
2023/04/13 05:21:37;;;;;;;12.80;8.07;;;4.40;99.90;;;;;;4980636;28;20230;-60
2023/04/13 05:24:06;;;;;;;12.17;8.13;;;4.50;99.90;;;;;;4937114;28;20311;-53
2023/04/13 05:26:34;;;;;;;14.80;9.60;;;4.60;99.90;;;;;;5010206;28;20211;-59
2023/04/13 05:29:01;;;;;;;14.70;9.47;;;4.60;99.90;;;;;;5019089;28;20460;-55
2023/04/13 05:31:33;;;;;;;14.77;8.70;;;4.70;99.90;;;;;;5008741;28;20201;-59
2023/04/13 05:34:00;;;;;;;16.17;8.97;;;4.80;99.90;;;;;;5008504;28;20258;-58
2023/04/13 05:36:27;;;;;;;17.57;9.17;;;4.90;99.90;;;;;;5009789;28;20243;-59
2023/04/13 05:38:56;;;;;;;17.10;9.20;;;5.00;99.90;;;;;;4988465;28;20227;-55
2023/04/13 05:41:26;;;;;;;12.93;9.03;;;5.10;99.90;;;;;;5014923;28;20337;-60
2023/04/13 05:44:15;;;;;;;16.33;9.17;;;5.10;99.90;;;;;;5016544;28;20282;-55
2023/04/13 05:46:43;;;;;;;15.57;8.97;;;5.20;99.90;;;;;;5007495;28;20219;-58
2023/04/13 05:49:09;;;;;;;16.97;9.30;;;5.20;99.90;;;;;;5012470;28;20715;-58
2023/04/13 05:51:38;;;;;;;13.30;8.70;;;5.30;99.90;;;;;;5013416;28;20278;-56
2023/04/13 05:54:05;;;;;;;13.87;9.40;;;5.40;99.90;;;;;;5014131;28;20218;-59
2023/04/13 05:56:34;;;;;;;15.90;8.67;;;5.50;99.90;;;;;;4989999;28;22324;-59
2023/04/13 05:59:02;;;;;;;17.33;9.33;;;5.50;99.90;;;;;;5013074;28;20283;-53
2023/04/13 06:01:29;;;;;;;12.43;8.50;;;5.60;99.90;;;;;;5012352;28;20194;-57
2023/04/13 06:03:56;;;;;;;14.90;8.50;;;5.70;99.90;;;;;;5014205;28;20192;-57
2023/04/13 06:06:24;;;;;;;17.93;8.67;;;5.80;99.90;;;;;;5010504;28;20208;-56
2023/04/13 06:08:51;;;;;;;11.87;7.77;;;5.90;99.90;;;;;;5012078;28;20228;-53
2023/04/13 06:11:20;;;;;;;15.63;8.00;;;6.00;99.90;;;;;;4982137;28;20203;-56
2023/04/13 06:13:48;;;;;;;12.30;7.67;;;6.10;99.90;;;;;;4998088;28;20204;-60
2023/04/13 06:16:15;;;;;;;13.10;8.23;;;6.20;99.90;;;;;;5009263;28;20246;-56
2023/04/13 06:18:43;;;;;;;10.93;7.77;;;6.30;99.90;;;;;;5016257;28;20234;-59
2023/04/13 06:21:09;;;;;;;13.40;8.03;;;6.40;99.90;;;;;;5018282;28;20188;-58
2023/04/13 06:23:37;;;;;;;11.03;7.47;;;6.40;99.90;;;;;;5018714;28;20196;-55
2023/04/13 06:26:12;;;;;;;12.13;7.53;;;6.50;99.90;;;;;;5005646;28;20330;-54
2023/04/13 06:28:53;;;;;;;16.03;8.03;;;6.50;99.90;;;;;;4986244;28;22310;-56
2023/04/13 06:31:22;;;;;;;10.20;6.33;;;6.40;99.90;;;;;;5007289;28;20204;-57
2023/04/13 06:33:49;;;;;;;9.57;6.87;;;6.40;99.90;;;;;;5018272;28;20253;-54
2023/04/13 06:36:22;;;;;;;8.60;6.40;;;6.40;99.90;;;;;;5016849;28;20200;-59
2023/04/13 06:38:50;;;;;;;12.50;6.93;;;6.40;99.90;;;;;;5014475;28;20216;-56
2023/04/13 06:41:19;;;;;;;8.10;6.40;;;6.50;99.90;;;;;;4991071;28;20203;-59
2023/04/13 06:43:47;;;;;;;9.23;6.40;;;6.50;99.90;;;;;;4990993;28;20242;-58
2023/04/13 06:46:20;;;;;;;10.73;5.90;;;6.60;99.90;;;;;;5020442;28;20212;-56
2023/04/13 06:48:50;;;;;;;12.27;6.73;;;6.60;99.90;;;;;;5016217;28;20293;-55
2023/04/13 06:51:23;;;;;;;8.27;6.07;;;6.60;99.90;;;;;;5019880;28;20214;-58
2023/04/13 06:53:52;;;;;;;7.07;5.13;;;6.60;99.90;;;;;;5014881;28;20196;-57
2023/04/13 06:56:19;;;;;;;7.77;5.23;;;6.70;99.90;;;;;;5011395;28;20283;-58
2023/04/13 06:58:47;;;;;;;6.33;4.53;;;6.70;99.90;;;;;;4981662;28;20227;-56
2023/04/13 07:01:14;;;;;;;5.73;4.27;;;6.80;99.90;;;;;;5016497;28;20206;-57
2023/04/13 07:03:43;;;;;;;6.47;4.10;;;6.80;99.90;;;;;;5010964;28;20203;-59
2023/04/13 07:06:10;;;;;;;7.73;4.37;;;6.90;99.90;;;;;;5019630;28;20215;-54
2023/04/13 07:08:40;;;;;;;5.57;3.77;;;7.00;99.90;;;;;;5019164;28;20225;-57
2023/04/13 07:11:08;;;;;;;7.47;3.70;;;7.00;99.90;;;;;;4998500;28;20216;-58
2023/04/13 07:13:39;;;;;;;7.67;4.00;;;7.10;99.90;;;;;;4986940;28;20215;-61
2023/04/13 07:16:10;;;;;;;6.10;3.57;;;7.20;99.90;;;;;;5011589;28;20204;-57
2023/04/13 07:18:41;;;;;;;6.73;3.40;;;7.30;99.90;;;;;;5007346;28;20303;-59
2023/04/13 07:21:09;;;;;;;4.43;3.00;;;7.40;99.90;;;;;;5020581;28;20196;-55
2023/04/13 07:24:01;;;;;;;3.80;3.20;;;7.50;99.90;;;;;;5014307;28;20188;-58
2023/04/13 07:26:29;;;;;;;5.47;2.83;;;7.60;99.90;;;;;;5003331;28;20212;-60
2023/04/13 07:28:57;;;;;;;5.80;2.53;;;7.70;99.90;;;;;;5007865;28;20228;-56
2023/04/13 07:31:28;;;;;;;4.03;2.90;;;7.60;99.90;;;;;;5008853;28;20210;-60
2023/04/13 07:33:56;;;;;;;4.67;2.17;;;7.70;99.90;;;;;;5015977;28;20257;-53
2023/04/13 07:36:31;;;;;;;4.17;2.10;;;7.70;99.90;;;;;;5010248;28;20195;-58
2023/04/13 07:39:16;;;;;;;3.40;2.17;;;7.70;99.90;;;;;;5012362;28;20721;-57
2023/04/13 07:41:48;;;;;;;3.40;2.13;;;7.80;99.90;;;;;;5003782;28;20243;-57
2023/04/13 07:44:20;;;;;;;2.47;2.17;;;7.80;99.90;;;;;;4995338;28;20216;-59
2023/04/13 07:46:48;;;;;;;2.27;2.00;;;7.90;99.90;;;;;;5004042;28;20243;-52
2023/04/13 07:49:15;;;;;;;2.20;2.00;;;7.90;99.90;;;;;;5011328;28;20263;-57
2023/04/13 07:51:44;;;;;;;2.90;1.70;;;8.00;99.90;;;;;;5009410;28;20223;-59
2023/04/13 07:54:33;;;;;;;3.33;1.50;;;8.00;99.90;;;;;;5008598;28;20269;-60
2023/04/13 07:57:01;;;;;;;2.83;1.60;;;8.00;99.90;;;;;;5019885;28;20199;-59
2023/04/13 07:59:30;;;;;;;2.80;2.00;;;8.10;99.90;;;;;;5009195;28;20199;-61
2023/04/13 08:02:17;;;;;;;3.30;1.70;;;8.10;99.90;;;;;;5011997;28;20326;-56
2023/04/13 08:04:48;;;;;;;3.07;1.40;;;8.20;99.90;;;;;;5014375;28;20208;-56
2023/04/13 08:07:35;;;;;;;2.07;1.43;;;8.20;99.90;;;;;;5009495;28;20234;-60
2023/04/13 08:10:03;;;;;;;1.57;1.40;;;8.20;99.90;;;;;;5017530;28;20223;-56
2023/04/13 08:12:30;;;;;;;1.90;1.10;;;8.20;99.90;;;;;;5009299;28;20203;-60
2023/04/13 08:14:57;;;;;;;4.33;1.57;;;8.20;99.90;;;;;;5004383;28;20266;-57
2023/04/13 08:17:24;;;;;;;3.00;1.67;;;8.20;99.90;;;;;;5013001;28;20223;-59
2023/04/13 08:19:52;;;;;;;3.03;1.73;;;8.30;99.90;;;;;;5008669;28;20192;-58
2023/04/13 08:22:19;;;;;;;1.93;1.40;;;8.30;99.90;;;;;;5016817;28;20275;-59
2023/04/13 08:24:49;;;;;;;1.57;1.30;;;8.40;99.90;;;;;;5016047;28;20949;-57
2023/04/13 08:27:15;;;;;;;3.00;1.20;;;8.40;99.90;;;;;;5019342;28;20303;-58
2023/04/13 08:29:45;;;;;;;2.47;1.60;;;8.40;99.90;;;;;;5008050;28;20200;-55
2023/04/13 08:32:12;;;;;;;1.53;1.10;;;8.40;99.90;;;;;;4998983;28;20207;-59
2023/04/13 08:34:39;;;;;;;4.00;1.60;;;8.50;99.90;;;;;;4994839;28;20289;-58
2023/04/13 08:37:06;;;;;;;2.43;1.83;;;8.50;99.90;;;;;;5018089;28;20196;-56
2023/04/13 08:39:58;;;;;;;1.90;1.43;;;8.50;99.90;;;;;;5016356;28;20220;-60
2023/04/13 08:42:26;;;;;;;3.57;1.17;;;8.50;99.90;;;;;;5011901;28;20204;-58
2023/04/13 08:45:13;;;;;;;2.00;1.10;;;8.50;99.90;;;;;;5018262;28;20687;-54
2023/04/13 08:47:44;;;;;;;1.60;1.20;;;8.60;99.90;;;;;;4989169;28;21018;-55
2023/04/13 08:50:16;;;;;;;2.83;1.20;;;8.60;99.90;;;;;;5013280;28;20351;-56
2023/04/13 08:52:47;;;;;;;3.47;1.67;;;8.70;99.90;;;;;;5014762;28;20289;-55
2023/04/13 08:55:17;;;;;;;2.17;1.23;;;8.80;99.90;;;;;;5019698;28;20283;-54
2023/04/13 08:57:49;;;;;;;2.27;1.30;;;8.90;99.90;;;;;;5011785;28;20220;-58
2023/04/13 09:00:18;;;;;;;2.13;1.37;;;9.00;99.90;;;;;;5005726;28;20193;-58
2023/04/13 09:02:49;;;;;;;2.40;1.20;;;9.00;99.90;;;;;;4992875;28;20223;-58
2023/04/13 09:05:19;;;;;;;1.30;1.20;;;9.10;99.90;;;;;;5006755;28;20209;-54
2023/04/13 09:07:55;;;;;;;2.17;1.50;;;9.10;99.90;;;;;;5016181;28;20980;-52
2023/04/13 09:10:25;;;;;;;2.17;1.43;;;9.20;99.90;;;;;;5015894;28;20207;-60
2023/04/13 09:12:54;;;;;;;3.73;1.67;;;9.30;99.90;;;;;;5014825;28;20196;-53
2023/04/13 09:15:46;;;;;;;2.67;1.40;;;9.30;99.90;;;;;;4996365;28;20398;-59
2023/04/13 09:18:28;;;;;;;1.60;1.50;;;9.40;99.90;;;;;;5020529;28;20215;-55
2023/04/13 09:21:04;;;;;;;2.13;1.40;;;9.40;99.90;;;;;;5010433;28;20211;-54
2023/04/13 09:23:31;;;;;;;3.83;1.40;;;9.50;99.90;;;;;;5024158;28;20211;-58
2023/04/13 09:26:06;;;;;;;2.93;1.70;;;9.60;99.90;;;;;;5039997;28;20199;-60
2023/04/13 09:28:45;;;;;;;2.53;2.03;;;9.60;99.90;;;;;;5009345;28;20603;-56
2023/04/13 09:31:14;;;;;;;1.40;1.30;;;9.80;99.90;;;;;;4977938;28;20398;-56
2023/04/13 09:33:44;;;;;;;2.73;1.63;;;9.90;99.90;;;;;;5017103;28;20208;-60
2023/04/13 09:36:14;;;;;;;2.50;1.80;;;10.00;99.90;;;;;;5006794;28;20192;-57
2023/04/13 09:38:42;;;;;;;2.10;1.30;;;9.90;99.90;;;;;;5013054;28;20234;-57
2023/04/13 09:41:11;;;;;;;0.70;0.70;;;9.90;99.90;;;;;;5015878;28;20195;-56
2023/04/13 09:43:39;;;;;;;1.30;1.20;;;10.00;99.90;;;;;;5011747;28;20756;-59
2023/04/13 09:46:12;;;;;;;2.53;1.43;;;10.10;99.90;;;;;;5005868;28;20309;-56
2023/04/13 09:48:39;;;;;;;3.57;1.50;;;10.00;99.90;;;;;;4994874;28;20224;-59
2023/04/13 09:51:08;;;;;;;3.07;2.00;;;10.00;99.90;;;;;;4998971;28;20203;-54
2023/04/13 09:53:44;;;;;;;1.83;1.60;;;10.10;99.90;;;;;;5015124;28;20203;-60
2023/04/13 09:56:13;;;;;;;1.60;1.50;;;10.10;99.90;;;;;;5015134;28;20207;-57
2023/04/13 09:58:43;;;;;;;1.40;1.27;;;10.30;99.90;;;;;;5006115;28;20243;-61
2023/04/13 10:01:10;;;;;;;2.47;1.40;;;10.30;99.90;;;;;;5022845;28;20203;-54
2023/04/13 10:03:38;;;;;;;2.33;1.27;;;10.40;99.90;;;;;;4978395;28;20564;-59
2023/04/13 10:06:06;;;;;;;2.80;1.20;;;10.50;99.90;;;;;;5008724;28;21773;-54
2023/04/13 10:08:33;;;;;;;2.20;1.40;;;10.60;99.90;;;;;;5018403;28;20569;-62
2023/04/13 10:11:03;;;;;;;1.90;1.40;;;10.70;99.90;;;;;;5006404;28;20950;-58
2023/04/13 10:13:35;;;;;;;3.13;1.53;;;10.60;99.90;;;;;;5010173;28;20204;-60
2023/04/13 10:16:29;;;;;;;1.50;1.10;;;10.70;99.90;;;;;;5017081;28;20208;-58
2023/04/13 10:19:00;;;;;;;1.30;1.20;;;10.70;99.90;;;;;;4986905;28;22125;-55
2023/04/13 10:21:32;;;;;;;1.97;0.90;;;10.70;99.90;;;;;;5021434;28;20668;-61
2023/04/13 10:23:59;;;;;;;1.40;1.30;;;10.70;99.90;;;;;;5009541;28;20199;-55
2023/04/13 10:26:32;;;;;;;2.03;1.40;;;10.60;99.90;;;;;;5013678;28;20886;-59
2023/04/13 10:29:01;;;;;;;3.30;1.77;;;10.50;99.90;;;;;;5037932;28;20916;-55
2023/04/13 10:31:36;;;;;;;5.03;1.60;;;10.50;99.90;;;;;;5012326;28;20204;-60
2023/04/13 10:34:04;;;;;;;2.63;1.90;;;10.60;99.90;;;;;;5014393;28;20287;-57
2023/04/13 10:36:38;;;;;;;3.63;1.90;;;10.60;99.90;;;;;;4995612;28;20212;-61
2023/04/13 10:39:05;;;;;;;2.20;1.37;;;10.70;99.90;;;;;;5001432;28;20285;-56
2023/04/13 10:41:31;;;;;;;1.67;1.53;;;10.70;99.90;;;;;;5007890;28;20282;-61
2023/04/13 10:44:04;;;;;;;1.60;1.17;;;10.70;99.90;;;;;;5016505;28;20199;-55
2023/04/13 10:46:33;;;;;;;0.90;0.90;;;10.70;99.90;;;;;;5013940;28;20207;-59
2023/04/13 10:49:01;;;;;;;3.77;1.60;;;10.70;99.90;;;;;;5015029;28;20293;-56
2023/04/13 10:51:39;;;;;;;2.30;1.33;;;10.70;99.90;;;;;;4990616;28;20196;-57
2023/04/13 10:54:06;;;;;;;1.33;1.00;;;10.70;99.90;;;;;;4992836;28;20199;-58
2023/04/13 10:56:33;;;;;;;1.63;1.40;;;10.80;99.90;;;;;;5006369;28;20215;-55
2023/04/13 10:59:00;;;;;;;2.60;1.73;;;11.00;99.90;;;;;;5011222;28;20698;-59
2023/04/13 11:01:29;;;;;;;2.53;1.57;;;11.20;99.90;;;;;;5009891;28;20194;-56
2023/04/13 11:03:57;;;;;;;1.93;1.83;;;11.20;99.90;;;;;;5014364;28;20282;-59
2023/04/13 11:06:24;;;;;;;1.80;1.70;;;11.20;99.90;;;;;;4985535;28;20192;-59
2023/04/13 11:08:59;;;;;;;1.70;1.60;;;11.10;99.90;;;;;;5013590;28;20224;-55
2023/04/13 11:11:26;;;;;;;1.73;1.37;;;11.10;99.90;;;;;;5015450;28;20206;-56
2023/04/13 11:13:53;;;;;;;2.90;1.60;;;11.00;99.90;;;;;;5017053;28;20230;-59
2023/04/13 11:16:20;;;;;;;1.63;1.50;;;10.90;99.90;;;;;;5020627;28;20192;-52
2023/04/13 11:18:48;;;;;;;3.23;2.30;;;11.00;99.90;;;;;;5013515;28;20230;-59
2023/04/13 11:21:15;;;;;;;2.60;1.90;;;11.00;99.90;;;;;;4986610;28;20513;-56
2023/04/13 11:23:42;;;;;;;3.53;2.07;;;11.10;99.90;;;;;;5015648;28;20200;-59
2023/04/13 11:26:09;;;;;;;4.07;1.90;;;11.20;99.90;;;;;;5007861;28;20283;-56
2023/04/13 11:28:39;;;;;;;2.03;1.93;;;11.40;99.90;;;;;;5021949;28;20231;-59
2023/04/13 11:31:06;;;;;;;2.00;1.50;;;11.40;99.90;;;;;;5009313;28;20218;-58
2023/04/13 11:33:34;;;;;;;2.13;1.60;;;11.60;99.90;;;;;;5021786;28;20731;-58
2023/04/13 11:36:03;;;;;;;3.00;1.70;;;11.80;99.90;;;;;;5010335;28;20864;-56
2023/04/13 11:38:31;;;;;;;2.00;1.50;;;11.90;99.90;;;;;;4986699;28;20235;-56
2023/04/13 11:41:18;;;;;;;1.03;1.03;;;11.90;99.90;;;;;;5009459;28;20735;-55
2023/04/13 11:43:47;;;;;;;3.00;1.43;;;11.80;99.90;;;;;;5020522;28;20211;-59
2023/04/13 11:46:14;;;;;;;1.07;0.93;;;11.70;99.90;;;;;;5022377;28;20239;-53
2023/04/13 11:49:00;;;;;;;2.77;1.83;;;11.60;99.90;;;;;;5011021;28;20246;-56
2023/04/13 11:51:30;;;;;;;6.23;1.60;;;11.60;99.90;;;;;;5017537;28;20212;-55
2023/04/13 11:53:57;;;;;;;0.93;0.90;;;11.60;99.90;;;;;;4993054;28;20197;-56
2023/04/13 11:56:24;;;;;;;1.67;1.27;;;11.80;99.90;;;;;;5016310;28;20204;-55
2023/04/13 11:58:52;;;;;;;2.20;1.30;;;12.00;99.90;;;;;;5018277;28;20227;-59
2023/04/13 12:01:21;;;;;;;2.10;1.30;;;12.00;99.90;;;;;;5017235;28;20189;-58
2023/04/13 12:03:49;;;;;;;1.57;1.13;;;12.00;99.90;;;;;;5012698;28;20204;-60
2023/04/13 12:06:16;;;;;;;2.70;1.10;;;12.00;99.90;;;;;;5012669;28;20263;-56
2023/04/13 12:08:44;;;;;;;2.80;1.33;;;12.00;99.90;;;;;;4995982;28;20220;-59
2023/04/13 12:11:13;;;;;;;0.90;0.90;;;12.10;99.90;;;;;;5016236;28;20249;-58
2023/04/13 12:13:43;;;;;;;2.00;1.57;;;12.10;99.90;;;;;;5015241;28;20728;-58
2023/04/13 12:16:23;;;;;;;1.80;1.30;;;12.30;99.90;;;;;;5010571;28;20202;-58
2023/04/13 12:18:50;;;;;;;1.60;1.50;;;12.40;99.90;;;;;;5016590;28;20226;-60
2023/04/13 12:21:18;;;;;;;2.87;1.53;;;12.50;99.90;;;;;;5020080;28;20231;-60
2023/04/13 12:23:54;;;;;;;1.20;1.10;;;12.60;99.90;;;;;;4994951;28;20238;-60
2023/04/13 12:26:24;;;;;;;1.30;1.20;;;12.80;99.90;;;;;;5019809;28;20202;-58
2023/04/13 12:28:55;;;;;;;1.40;1.30;;;12.90;99.90;;;;;;4999545;28;20238;-60
2023/04/13 12:31:23;;;;;;;1.80;1.57;;;13.10;99.90;;;;;;5013905;28;20219;-53
2023/04/13 12:33:50;;;;;;;1.90;1.17;;;13.20;99.90;;;;;;5024721;28;20270;-60
2023/04/13 12:36:17;;;;;;;1.37;1.27;;;13.20;99.90;;;;;;5023554;28;20203;-56
2023/04/13 12:38:44;;;;;;;3.03;1.10;;;13.30;99.90;;;;;;5012406;28;20298;-61
2023/04/13 12:41:13;;;;;;;0.90;0.90;;;13.30;99.90;;;;;;5019573;28;20194;-58
2023/04/13 12:43:40;;;;;;;1.30;1.20;;;13.10;99.90;;;;;;5001185;28;20200;-60
2023/04/13 12:46:07;;;;;;;1.77;1.03;;;13.00;99.90;;;;;;5011373;28;20200;-57
2023/04/13 12:48:34;;;;;;;2.37;1.63;;;12.90;99.90;;;;;;5019977;28;20233;-55
2023/04/13 12:51:19;;;;;;;3.50;1.50;;;12.90;99.90;;;;;;5022335;28;20690;-57
2023/04/13 12:53:46;;;;;;;2.37;1.30;;;13.10;99.90;;;;;;5003123;28;20281;-60
2023/04/13 12:56:14;;;;;;;1.63;1.53;;;13.30;99.90;;;;;;5001837;28;20204;-58
2023/04/13 12:58:41;;;;;;;2.03;1.60;;;13.40;99.90;;;;;;5007730;28;20226;-60
2023/04/13 13:01:08;;;;;;;3.07;1.80;;;13.50;99.90;;;;;;5010246;28;20220;-56
2023/04/13 13:03:35;;;;;;;3.07;1.40;;;13.60;99.90;;;;;;5040469;28;20627;-57
2023/04/13 13:06:04;;;;;;;1.30;1.20;;;13.90;99.90;;;;;;5017909;28;20271;-59
2023/04/13 13:08:30;;;;;;;3.73;1.77;;;13.90;99.90;;;;;;5019539;28;20225;-54